SPHO

Coronel FAP Alfredo Mendivil Duarte Airport

Ayacucho, Peru
TAF COR SPHO 181110Z 1812/1912 VRB01KT CAVOK TX25/1819Z TN07/1911Z TEMPO 1819/1823 03010KT BECMG 1823/1902 00000KT
Issued Valid From Valid To
Jun-18 @ 11:10 UTC
(2 hours ago)
Jun-18 @ 12:00 UTC
(an hour ago)
Jun-19 @ 12:00 UTC
(in 23 hours)
Jun-18 @ 12:00 to Jun-18 @ 23:00
TAF COR SPHO 181110Z 1812/1912 VRB01KT CAVOK TX25/1819Z TN07/1911Z
Wind Visibility Clouds
Variable at 1 knots 10,000+ meters
  • No significant clouds
Temporary Jun-18 @ 19:00 to Jun-18 @ 23:00
TEMPO 1819/1823 03010KT
Wind
30° at 10 knots
Becoming Jun-18 @ 23:00 to Jun-19 @ 12:00
BECMG 1823/1902 00000KT
Visibility Clouds
10,000+ meters
  • No significant clouds
TAF COR SPHO 181110Z 1812/1912 VRB01KT CAVOK TX25/1819Z TN07/1911Z TEMPO 1819/1823 03010KT BECMG 1823/1902 00000KT
Issued Jun-18 @ 11:10 UTC
(2 hours ago)
Valid From Jun-18 @ 12:00 UTC
(an hour ago)
Valid To Jun-19 @ 12:00 UTC
(in 23 hours)
Jun-18 @ 12:00 - Jun-18 @ 23:00
Wind Visibility
Variable at 1 knots 10,000+ meters
Clouds
  • No significant clouds
Temporary Jun-18 @ 19:00 - Jun-18 @ 23:00
Wind
30° at 10 knots
Becoming Jun-18 @ 23:00 - Jun-19 @ 12:00
Clouds
  • No significant clouds